Time;durP1;ratioP1;P1;durP2;ratioP2;P2;SDS_P1;SDS_P2;PMS_P1;PMS_P2;Temp;Humidity;BMP_temperature;BMP_pressure;BME280_temperature;BME280_humidity;BME280_pressure;Samples;Min_cycle;Max_cycle;Signal;HPM_P1;HPM_P2
2023/01/01 00:02:02;;;;;;;16.33;12.70;;;;;;;16.86;44.74;100608.81;5117186;28;20248;-68
2023/01/01 00:04:30;;;;;;;18.67;12.80;;;;;;;16.93;45.34;100611.75;5117063;28;20173;-68
2023/01/01 00:06:57;;;;;;;30.03;13.17;;;;;;;17.01;43.95;100611.81;5116544;28;20694;-68
2023/01/01 00:12:08;;;;;;;35.97;11.03;;;;;;;16.98;43.80;100631.06;5116606;28;20256;-68
2023/01/01 00:14:34;;;;;;;32.60;11.07;;;;;;;17.06;44.32;100625.72;5116563;28;20288;-68
2023/01/01 00:17:01;;;;;;;26.03;10.80;;;;;;;17.05;43.86;100624.03;5116510;28;20220;-68
2023/01/01 00:19:27;;;;;;;23.83;10.53;;;;;;;17.00;44.47;100618.25;5116167;28;20188;-68
2023/01/01 00:21:54;;;;;;;27.70;10.13;;;;;;;17.00;43.65;100623.66;5116122;28;20189;-68
2023/01/01 00:24:20;;;;;;;20.77;9.37;;;;;;;16.95;44.61;100616.00;5116041;28;20272;-68
2023/01/01 00:26:46;;;;;;;22.90;9.37;;;;;;;16.95;43.94;100621.41;5116213;28;20205;-68
2023/01/01 00:29:13;;;;;;;22.47;9.70;;;;;;;16.96;44.06;100616.84;5097667;28;20291;-68
2023/01/01 00:31:39;;;;;;;21.00;9.00;;;;;;;16.90;44.89;100618.28;5115843;28;20195;-68
2023/01/01 00:34:06;;;;;;;13.47;7.70;;;;;;;16.86;45.10;100614.22;5115816;28;20197;-68
2023/01/01 00:36:32;;;;;;;19.07;9.03;;;;;;;16.79;45.14;100608.56;5115821;28;20197;-68
2023/01/01 00:39:00;;;;;;;10.17;8.83;;;;;;;16.72;45.04;100623.66;5115792;28;20703;-68
2023/01/01 00:41:27;;;;;;;23.73;9.33;;;;;;;16.67;45.68;100623.28;5116346;28;20608;-68
2023/01/01 00:43:53;;;;;;;20.57;9.67;;;;;;;16.75;44.88;100625.22;5115688;28;20182;-68
2023/01/01 00:46:19;;;;;;;17.77;8.47;;;;;;;16.76;44.25;100624.19;5115380;28;20713;-68
2023/01/01 00:48:46;;;;;;;20.07;8.87;;;;;;;16.73;44.26;100621.81;5115558;28;20189;-68
2023/01/01 00:51:13;;;;;;;15.87;9.50;;;;;;;16.66;44.41;100637.78;5116075;28;20185;-68
2023/01/01 00:53:39;;;;;;;15.57;11.77;;;;;;;16.61;44.44;100626.56;5115404;28;20216;-68
2023/01/01 00:56:06;;;;;;;23.37;16.63;;;;;;;16.48;44.49;100635.06;5115362;28;20713;-68
2023/01/01 00:58:33;;;;;;;38.37;19.17;;;;;;;16.43;45.35;100621.16;5115632;28;20191;-68
2023/01/01 01:00:59;;;;;;;54.47;25.00;;;;;;;16.33;46.05;100621.19;5115645;28;20550;-68
2023/01/01 01:03:29;;;;;;;57.50;25.23;;;;;;;16.22;45.65;100609.75;5115536;28;20192;-68
2023/01/01 01:05:58;;;;;;;57.63;25.70;;;;;;;16.15;45.59;100623.00;5115145;28;20209;-68
2023/01/01 01:08:26;;;;;;;55.53;24.17;;;;;;;16.12;45.83;100624.13;5115153;28;20183;-68
2023/01/01 01:11:07;;;;;;;55.07;25.07;;;;;;;16.10;46.00;100618.03;5115442;28;20166;-68
2023/01/01 01:13:34;;;;;;;45.17;21.23;;;;;;;16.14;45.49;100626.72;5115097;28;20257;-68
2023/01/01 01:16:07;;;;;;;50.53;21.87;;;;;;;16.16;45.74;100633.66;5115186;28;20208;-68
2023/01/01 01:18:33;;;;;;;49.23;21.17;;;;;;;16.15;44.99;100613.03;5115265;28;20180;-68
2023/01/01 01:21:00;;;;;;;34.73;18.53;;;;;;;16.07;45.25;100620.19;5114738;28;20254;-67
2023/01/01 01:23:26;;;;;;;27.20;16.17;;;;;;;16.09;45.01;100629.84;5115201;28;20182;-68
2023/01/01 01:25:53;;;;;;;27.50;15.50;;;;;;;16.16;44.73;100646.28;5114751;28;20198;-67
2023/01/01 01:28:19;;;;;;;22.03;14.13;;;;;;;16.12;45.49;100628.69;5115062;28;20169;-67
2023/01/01 01:30:45;;;;;;;21.70;11.27;;;;;;;16.09;44.91;100629.84;5115318;28;20247;-67
2023/01/01 01:33:12;;;;;;;18.37;10.70;;;;;;;16.10;44.67;100650.44;5114732;28;20203;-67
2023/01/01 01:35:38;;;;;;;19.77;10.73;;;;;;;16.13;44.28;100636.63;5114762;28;20205;-68
2023/01/01 01:38:05;;;;;;;17.47;9.97;;;;;;;16.15;44.52;100631.09;5114926;28;20185;-67
2023/01/01 01:40:32;;;;;;;19.10;9.33;;;;;;;16.07;44.63;100631.84;5114585;28;20673;-67
2023/01/01 01:42:58;;;;;;;9.23;8.40;;;;;;;16.06;43.80;100651.75;5114556;28;20536;-67
2023/01/01 01:45:25;;;;;;;12.43;8.23;;;;;;;16.10;43.92;100657.72;5114828;28;20532;-67
2023/01/01 01:47:58;;;;;;;26.87;8.37;;;;;;;16.13;44.32;100643.91;5114724;28;20177;-67
2023/01/01 01:50:32;;;;;;;11.07;8.20;;;;;;;16.00;44.08;100644.25;5114683;28;20196;-67
2023/01/01 01:53:14;;;;;;;9.67;7.17;;;;;;;15.98;44.24;100645.38;5114670;28;20180;-67
2023/01/01 01:55:47;;;;;;;12.10;6.73;;;;;;;15.87;44.77;100659.91;5114192;28;20201;-67
2023/01/01 01:58:15;;;;;;;14.90;5.67;;;;;;;15.77;44.49;100659.09;5113829;28;20181;-67
2023/01/01 02:00:41;;;;;;;7.07;6.37;;;;;;;15.82;44.37;100667.59;5114267;28;20234;-67
2023/01/01 02:03:12;;;;;;;9.17;5.30;;;;;;;15.76;44.27;100676.31;5114478;28;20635;-67
2023/01/01 02:05:40;;;;;;;5.70;5.37;;;;;;;15.74;44.88;100673.72;5114391;28;20195;-67
2023/01/01 02:08:07;;;;;;;5.57;5.13;;;;;;;15.66;44.68;100681.69;5114117;28;20272;-67
2023/01/01 02:10:34;;;;;;;12.23;4.27;;;;;;;15.64;44.28;100671.03;5114326;28;20268;-67
2023/01/01 02:13:00;;;;;;;5.17;3.83;;;;;;;15.71;43.51;100665.94;5114308;28;20593;-67
2023/01/01 02:15:33;;;;;;;7.87;3.97;;;;;;;15.58;44.20;100676.97;5113917;28;20205;-67
2023/01/01 02:18:10;;;;;;;4.60;4.30;;;;;;;15.54;44.45;100681.00;5113880;28;20193;-67
2023/01/01 02:21:03;;;;;;;4.20;3.90;;;;;;;15.47;44.60;100672.59;5114050;28;20557;-67
2023/01/01 02:23:45;;;;;;;7.47;3.70;;;;;;;15.47;44.61;100675.31;5103146;28;20201;-67
2023/01/01 02:26:18;;;;;;;4.13;3.60;;;;;;;15.47;44.57;100674.47;5114217;28;20215;-67
2023/01/01 02:29:01;;;;;;;3.33;3.10;;;;;;;15.43;44.79;100670.34;5114426;28;20289;-67
2023/01/01 02:31:38;;;;;;;10.90;3.43;;;;;;;15.36;45.06;100671.91;5113815;28;20175;-67
2023/01/01 02:34:10;;;;;;;4.07;3.00;;;;;;;15.31;45.65;100677.72;5113714;28;20690;-67
2023/01/01 02:36:45;;;;;;;4.60;3.87;;;;;;;15.32;43.94;100665.91;5113696;28;20295;-67
2023/01/01 02:39:14;;;;;;;7.47;4.87;;;;;;;15.27;44.65;100671.75;5113731;28;20183;-67
2023/01/01 02:41:45;;;;;;;6.77;5.83;;;;;;;15.32;44.09;100668.63;5113710;28;20192;-67
2023/01/01 02:44:12;;;;;;;14.70;6.10;;;;;;;15.31;44.67;100672.31;5114278;28;20179;-67
2023/01/01 02:46:38;;;;;;;16.70;6.93;;;;;;;15.22;45.05;100671.31;5113552;28;20247;-67
2023/01/01 02:49:04;;;;;;;9.40;7.03;;;;;;;15.15;44.72;100664.78;5113611;28;20193;-67
2023/01/01 02:52:00;;;;;;;8.97;6.57;;;;;;;15.16;44.82;100671.91;5113903;28;20177;-67
2023/01/01 02:54:32;;;;;;;7.53;6.90;;;;;;;15.17;45.38;100661.97;5113790;28;20203;-67
2023/01/01 02:57:09;;;;;;;15.83;7.33;;;;;;;15.13;44.67;100668.63;5113743;28;20201;-67
2023/01/01 03:03:08;;;;;;;7.33;6.87;;;;;;;15.07;45.26;100681.69;5113467;28;20181;-67
2023/01/01 03:09:02;;;;;;;9.80;4.80;;;;;;;15.05;45.49;100688.22;5113483;28;20180;-67
2023/01/01 03:11:42;;;;;;;10.97;4.50;;;;;;;15.05;45.33;100685.50;5102062;28;20282;-67
2023/01/01 03:14:23;;;;;;;4.83;4.00;;;;;;;15.02;45.29;100692.03;5117660;28;20193;-67
2023/01/01 03:16:56;;;;;;;5.47;4.17;;;;;;;14.98;45.79;100706.78;5117915;28;20210;-67
2023/01/01 03:19:27;;;;;;;3.77;3.67;;;;;;;14.97;45.67;100704.25;5117916;28;20177;-67
2023/01/01 03:22:06;;;;;;;5.90;3.27;;;;;;;14.95;45.54;100704.38;5117282;28;20200;-67
2023/01/01 03:24:50;;;;;;;4.07;3.40;;;;;;;14.89;45.88;100695.00;5117870;28;20174;-67
2023/01/01 03:27:21;;;;;;;3.07;2.87;;;;;;;14.95;45.71;100698.13;5117144;28;20211;-67
2023/01/01 03:29:51;;;;;;;5.10;3.63;;;;;;;14.94;46.53;100701.81;5117773;28;20269;-67
2023/01/01 03:35:20;;;;;;;5.93;3.10;;;;;;;14.91;45.85;100696.72;5117409;28;20284;-67
2023/01/01 03:37:50;;;;;;;6.10;2.90;;;;;;;14.85;46.53;100704.38;5116943;28;20292;-68
2023/01/01 03:40:20;;;;;;;3.67;2.50;;;;;;;14.84;46.12;100701.78;5116957;28;20189;-67
2023/01/01 03:42:54;;;;;;;2.63;2.43;;;;;;;14.94;46.07;100700.00;5116902;28;20190;-67
2023/01/01 03:45:27;;;;;;;5.60;2.70;;;;;;;14.94;45.97;100707.22;5117196;28;20169;-67
2023/01/01 03:47:54;;;;;;;2.50;2.50;;;;;;;14.86;46.97;100710.59;5117131;28;20542;-67
2023/01/01 03:50:27;;;;;;;7.03;2.50;;;;;;;14.89;46.99;100715.72;5116759;28;20181;-67
2023/01/01 03:53:06;;;;;;;5.43;2.60;;;;;;;14.95;46.56;100725.13;5117295;28;20176;-67
2023/01/01 03:55:43;;;;;;;12.93;3.00;;;;;;;14.96;46.80;100732.19;5116565;28;20204;-67
2023/01/01 03:58:23;;;;;;;3.77;2.40;;;;;;;14.97;46.57;100736.63;5116920;28;20183;-67
2023/01/01 04:00:56;;;;;;;5.93;2.87;;;;;;;14.94;46.88;100723.38;5116900;28;20193;-67
2023/01/01 04:03:26;;;;;;;5.63;3.37;;;;;;;14.89;47.07;100729.19;5116558;28;20627;-67
2023/01/01 04:05:53;;;;;;;3.53;3.37;;;;;;;14.94;46.97;100723.38;5116360;28;20223;-68
2023/01/01 04:08:20;;;;;;;3.93;2.67;;;;;;;14.95;46.91;100728.66;5116463;28;20565;-68
2023/01/01 04:10:52;;;;;;;5.20;2.40;;;;;;;14.92;47.42;100723.53;5116889;28;20185;-67
2023/01/01 04:13:19;;;;;;;2.40;2.30;;;;;;;14.87;47.81;100740.13;5116922;28;20177;-67
2023/01/01 04:15:45;;;;;;;3.97;3.33;;;;;;;14.85;48.23;100760.16;5116119;28;20215;-68
2023/01/01 04:18:11;;;;;;;3.50;2.90;;;;;;;14.83;48.41;100745.94;5116201;28;20191;-67
2023/01/01 04:20:38;;;;;;;3.20;3.10;;;;;;;14.77;48.80;100752.75;5115563;28;20197;-67
2023/01/01 04:23:04;;;;;;;2.70;2.40;;;;;;;14.70;48.60;100748.88;5116171;28;20180;-67
2023/01/01 04:25:31;;;;;;;2.80;2.70;;;;;;;14.71;49.00;100757.81;5116025;28;20547;-67
2023/01/01 04:27:58;;;;;;;3.63;2.67;;;;;;;14.74;48.86;100741.38;5116319;28;20205;-67
2023/01/01 04:30:25;;;;;;;8.03;3.03;;;;;;;14.80;48.82;100759.72;5116274;28;20728;-67
2023/01/01 04:32:53;;;;;;;2.70;2.60;;;;;;;14.84;48.80;100766.50;5116235;28;20196;-67
2023/01/01 04:35:19;;;;;;;4.63;2.93;;;;;;;14.79;48.33;100739.97;5115808;28;20207;-67
2023/01/01 04:37:47;;;;;;;2.70;2.70;;;;;;;14.78;48.59;100751.75;5116311;28;20201;-67
2023/01/01 04:40:14;;;;;;;2.33;2.23;;;;;;;14.81;49.20;100753.31;5115791;28;20191;-67
2023/01/01 04:42:40;;;;;;;6.13;2.17;;;;;;;14.81;49.36;100759.56;5116312;28;20543;-67
2023/01/01 04:45:07;;;;;;;14.97;2.90;;;;;;;14.84;49.50;100771.91;5115966;28;20192;-67
2023/01/01 04:47:34;;;;;;;7.93;3.53;;;;;;;14.84;49.03;100769.22;5115553;28;20201;-67
2023/01/01 04:50:00;;;;;;;8.53;3.07;;;;;;;14.85;49.43;100779.03;5115525;28;20196;-67
2023/01/01 04:52:26;;;;;;;2.50;2.50;;;;;;;14.83;49.79;100783.69;5115508;28;20267;-67
2023/01/01 04:54:53;;;;;;;3.57;3.37;;;;;;;14.91;50.15;100793.78;5115445;28;20219;-67
2023/01/01 04:57:19;;;;;;;6.53;2.83;;;;;;;14.96;50.38;100788.84;5115403;28;20220;-67
2023/01/01 04:59:45;;;;;;;7.37;3.30;;;;;;;14.94;50.57;100782.72;5115685;28;20546;-67
2023/01/01 05:02:12;;;;;;;8.63;2.93;;;;;;;14.91;51.44;100778.47;5115300;28;20221;-67
2023/01/01 05:04:38;;;;;;;4.27;3.30;;;;;;;14.83;51.18;100764.81;5115324;28;20177;-67
2023/01/01 05:07:05;;;;;;;4.70;3.70;;;;;;;14.85;51.06;100777.16;5115175;28;20205;-68
2023/01/01 05:09:31;;;;;;;12.00;3.47;;;;;;;14.84;50.52;100785.38;5115445;28;20193;-67
2023/01/01 05:11:57;;;;;;;8.30;4.17;;;;;;;14.82;51.68;100790.06;5115086;28;20670;-67
2023/01/01 05:14:25;;;;;;;7.90;3.60;;;;;;;14.89;51.59;100797.50;5115326;28;20181;-67
2023/01/01 05:16:51;;;;;;;9.93;3.10;;;;;;;14.94;51.47;100782.72;5115310;28;20551;-68
2023/01/01 05:19:18;;;;;;;4.30;3.67;;;;;;;14.89;51.17;100780.44;5114995;28;20213;-68
2023/01/01 05:21:45;;;;;;;3.60;3.40;;;;;;;14.90;51.77;100779.47;5114712;28;20196;-67
2023/01/01 05:24:12;;;;;;;3.40;3.20;;;;;;;14.89;50.96;100767.81;5114944;28;20271;-67
2023/01/01 05:26:41;;;;;;;4.83;3.10;;;;;;;14.91;51.33;100774.91;5115116;28;20205;-67
2023/01/01 05:29:07;;;;;;;2.97;2.87;;;;;;;14.93;51.03;100776.47;5115397;28;20185;-67
2023/01/01 05:31:42;;;;;;;6.50;2.80;;;;;;;14.91;51.25;100764.97;5115131;28;20200;-67
2023/01/01 05:34:09;;;;;;;4.73;2.50;;;;;;;14.91;50.52;100764.97;5114954;28;20181;-67
2023/01/01 05:36:37;;;;;;;14.73;2.93;;;;;;;14.88;51.35;100776.88;5114834;28;20262;-67
2023/01/01 05:39:05;;;;;;;15.00;2.73;;;;;;;14.91;51.39;100789.25;5115186;28;20189;-67
2023/01/01 05:41:35;;;;;;;3.70;3.30;;;;;;;14.92;51.12;100795.47;5115208;28;20219;-67
2023/01/01 05:44:03;;;;;;;2.60;2.50;;;;;;;14.92;51.30;100804.44;5114808;28;20185;-67
2023/01/01 05:46:31;;;;;;;5.47;2.83;;;;;;;14.93;51.82;100806.16;5114415;28;20292;-68
2023/01/01 05:48:57;;;;;;;6.13;2.53;;;;;;;14.92;51.95;100811.66;5114711;28;20181;-67
2023/01/01 05:51:26;;;;;;;11.37;2.60;;;;;;;14.90;51.98;100809.13;5114461;28;20177;-67
2023/01/01 05:53:53;;;;;;;4.83;2.20;;;;;;;14.96;51.24;100808.56;5114663;28;20185;-67
2023/01/01 05:56:20;;;;;;;2.50;2.27;;;;;;;14.94;50.76;100809.69;5114154;28;20217;-67
2023/01/01 05:58:47;;;;;;;3.63;2.43;;;;;;;14.94;51.09;100815.09;5114529;28;20189;-67
2023/01/01 06:01:23;;;;;;;4.53;2.43;;;;;;;14.93;51.94;100835.81;5114250;28;20268;-67
2023/01/01 06:03:50;;;;;;;2.00;1.90;;;;;;;14.94;51.26;100836.66;5114211;28;20189;-67
2023/01/01 06:06:19;;;;;;;3.53;2.67;;;;;;;14.97;51.88;100842.66;5114099;28;20197;-68
2023/01/01 06:08:53;;;;;;;5.50;2.47;;;;;;;14.86;52.53;100831.94;5114121;28;20223;-68
2023/01/01 06:11:20;;;;;;;2.40;2.27;;;;;;;14.79;52.95;100830.78;5114655;28;20208;-67
2023/01/01 06:13:47;;;;;;;2.60;2.07;;;;;;;14.75;52.61;100845.50;5114088;28;20203;-67
2023/01/01 06:16:14;;;;;;;3.70;2.90;;;;;;;14.69;52.46;100846.91;5113850;28;20213;-68
2023/01/01 06:18:40;;;;;;;4.33;2.37;;;;;;;14.64;53.42;100854.56;5113903;28;20185;-67
2023/01/01 06:21:18;;;;;;;11.70;2.87;;;;;;;14.74;52.68;100860.84;5113764;28;20200;-67
2023/01/01 06:23:45;;;;;;;3.20;3.00;;;;;;;14.71;53.13;100844.09;5114200;28;20616;-67
2023/01/01 06:26:13;;;;;;;6.27;2.60;;;;;;;14.76;52.71;100858.88;5113787;28;20201;-67
2023/01/01 06:28:40;;;;;;;3.33;2.10;;;;;;;14.79;52.37;100868.53;5113816;28;20191;-67
2023/01/01 06:31:08;;;;;;;9.03;1.90;;;;;;;14.79;52.19;100876.63;5114320;28;20192;-67
2023/01/01 06:33:36;;;;;;;7.33;2.87;;;;;;;14.76;52.40;100875.06;5113668;28;20193;-67
2023/01/01 06:36:05;;;;;;;2.43;2.43;;;;;;;14.82;52.76;100879.91;5113611;28;20283;-68
2023/01/01 06:38:33;;;;;;;7.77;2.60;;;;;;;14.84;53.21;100885.16;5114242;28;20188;-67
2023/01/01 06:41:03;;;;;;;2.80;2.70;;;;;;;14.78;52.38;100874.94;5113942;28;20173;-68
2023/01/01 06:43:32;;;;;;;4.47;2.37;;;;;;;14.81;52.56;100886.28;5114473;28;20613;-67
2023/01/01 06:46:14;;;;;;;3.70;3.00;;;;;;;14.78;52.21;100894.66;5120349;28;20196;-68
2023/01/01 06:48:41;;;;;;;2.37;2.30;;;;;;;14.84;52.11;100894.13;5120448;28;20535;-68
2023/01/01 06:51:11;;;;;;;2.50;2.50;;;;;;;14.83;52.34;100899.66;5120437;28;20195;-68
2023/01/01 06:53:37;;;;;;;4.63;2.20;;;;;;;14.76;52.61;100914.66;5120380;28;20231;-67
2023/01/01 06:56:04;;;;;;;7.30;2.70;;;;;;;14.75;52.54;100900.31;5120797;28;20213;-68
2023/01/01 06:58:30;;;;;;;5.10;2.30;;;;;;;14.78;53.15;100908.13;5120343;28;20673;-68
2023/01/01 07:01:14;;;;;;;3.10;2.47;;;;;;;14.77;53.33;100913.66;5120330;28;20181;-67
2023/01/01 07:03:42;;;;;;;4.23;2.33;;;;;;;14.65;54.73;100894.00;5120629;28;20184;-68
2023/01/01 07:06:10;;;;;;;7.53;2.47;;;;;;;14.56;55.29;100910.97;5120809;28;20662;-68
2023/01/01 07:08:36;;;;;;;3.63;2.30;;;;;;;14.51;56.49;100910.47;5120558;28;20289;-67
2023/01/01 07:11:04;;;;;;;5.73;2.70;;;;;;;14.40;56.53;100919.47;5120267;28;20542;-67
2023/01/01 07:13:30;;;;;;;3.07;2.23;;;;;;;14.38;56.52;100906.13;5120581;28;20173;-67
2023/01/01 07:15:58;;;;;;;3.10;2.90;;;;;;;14.37;56.34;100935.91;5120568;28;20214;-67
2023/01/01 07:18:27;;;;;;;15.13;2.53;;;;;;;14.37;55.32;100923.28;5120228;28;20192;-67
2023/01/01 07:21:03;;;;;;;3.30;2.80;;;;;;;14.33;56.44;100943.38;5120255;28;20201;-67
2023/01/01 07:23:32;;;;;;;5.03;2.20;;;;;;;14.38;56.92;100940.31;5120523;28;20171;-67
2023/01/01 07:25:58;;;;;;;3.77;2.43;;;;;;;14.30;57.29;100940.97;5120593;28;20287;-67
2023/01/01 07:28:26;;;;;;;8.23;2.43;;;;;;;14.41;57.71;100945.44;5120140;28;20181;-67
2023/01/01 07:30:53;;;;;;;2.17;2.07;;;;;;;14.34;57.94;100947.81;5120088;28;20188;-67
2023/01/01 07:33:22;;;;;;;2.73;2.53;;;;;;;14.22;58.48;100959.59;5120036;28;20181;-67
2023/01/01 07:35:48;;;;;;;4.83;2.93;;;;;;;14.19;58.56;100966.09;5119927;27;20247;-68
2023/01/01 07:38:15;;;;;;;12.40;2.73;;;;;;;14.07;59.92;100969.81;5120337;28;20181;-67
2023/01/01 07:40:41;;;;;;;3.30;2.50;;;;;;;14.03;60.89;100977.28;5120015;28;20189;-67
2023/01/01 07:43:09;;;;;;;2.43;2.17;;;;;;;13.91;62.34;100990.88;5119996;28;20594;-67
2023/01/01 07:45:35;;;;;;;9.37;2.57;;;;;;;13.77;63.21;100982.13;5119901;28;20267;-68
2023/01/01 07:48:02;;;;;;;10.33;4.23;;;;;;;13.65;64.50;100988.50;5119928;28;20187;-67
2023/01/01 07:50:31;;;;;;;3.90;2.40;;;;;;;13.53;65.21;100982.25;5119875;28;20272;-67
2023/01/01 07:52:57;;;;;;;3.10;2.30;;;;;;;13.48;65.14;100984.47;5119946;28;20188;-67
2023/01/01 07:55:24;;;;;;;5.00;1.90;;;;;;;13.43;65.91;100991.19;5118830;28;20201;-67
2023/01/01 07:57:50;;;;;;;2.90;2.67;;;;;;;13.40;66.77;101001.19;5115941;28;20215;-67
2023/01/01 08:00:19;;;;;;;12.37;2.70;;;;;;;13.42;66.43;100997.56;5116590;28;20663;-67
2023/01/01 08:02:46;;;;;;;6.60;1.97;;;;;;;13.39;66.52;100993.28;5116848;28;20182;-67
2023/01/01 08:05:13;;;;;;;2.17;2.03;;;;;;;13.43;66.01;101015.41;5116495;28;20219;-67
2023/01/01 08:07:39;;;;;;;12.70;2.40;;;;;;;13.39;66.27;101023.72;5116491;28;20217;-67
2023/01/01 08:10:06;;;;;;;11.13;2.83;;;;;;;13.34;67.00;101020.53;5116390;28;20189;-67
2023/01/01 08:12:33;;;;;;;2.93;2.27;;;;;;;13.34;66.70;101011.63;5116944;28;20186;-67
2023/01/01 08:14:59;;;;;;;6.00;2.60;;;;;;;13.32;67.92;101018.94;5116301;28;20178;-67
2023/01/01 08:17:26;;;;;;;6.70;2.43;;;;;;;13.27;67.48;101032.75;5116143;28;20209;-67
2023/01/01 08:19:52;;;;;;;6.03;2.43;;;;;;;13.30;67.37;101047.81;5116413;28;20181;-67
2023/01/01 08:22:18;;;;;;;3.10;2.80;;;;;;;13.30;67.26;101045.97;5116097;28;20199;-67
2023/01/01 08:24:45;;;;;;;21.80;3.60;;;;;;;13.30;67.60;101045.09;5116705;28;20181;-67
2023/01/01 08:27:13;;;;;;;6.57;3.47;;;;;;;13.40;67.18;101043.41;5116039;28;20207;-67
2023/01/01 08:29:40;;;;;;;3.07;2.93;;;;;;;13.44;65.79;101044.88;5116271;28;20662;-67
2023/01/01 08:32:09;;;;;;;3.20;2.97;;;;;;;13.54;65.36;101036.94;5116582;28;20162;-67
2023/01/01 08:34:35;;;;;;;6.60;2.87;;;;;;;13.58;65.29;101038.41;5116261;28;20204;-67
2023/01/01 08:37:02;;;;;;;5.83;2.33;;;;;;;13.59;65.27;101048.19;5115741;28;20212;-67
2023/01/01 08:39:28;;;;;;;15.23;3.17;;;;;;;13.57;65.08;101047.44;5115820;28;20268;-67
2023/01/01 08:41:55;;;;;;;8.43;3.03;;;;;;;13.60;64.63;101064.22;5115747;28;20189;-67
2023/01/01 08:44:21;;;;;;;6.40;2.70;;;;;;;13.66;64.73;101068.25;5097437;28;20629;-67
2023/01/01 08:46:48;;;;;;;10.83;3.13;;;;;;;13.62;64.94;101074.84;5115616;28;20284;-67
2023/01/01 08:49:14;;;;;;;3.70;2.67;;;;;;;13.71;63.57;101084.03;5115665;28;20193;-67
2023/01/01 08:51:41;;;;;;;6.00;3.33;;;;;;;13.72;64.14;101078.53;5115608;28;20185;-67
2023/01/01 08:54:07;;;;;;;10.03;3.20;;;;;;;13.70;64.34;101088.56;5115516;28;20789;-67
2023/01/01 08:56:36;;;;;;;4.80;2.80;;;;;;;13.75;63.82;101074.75;5115389;28;20211;-67
2023/01/01 08:59:03;;;;;;;4.40;3.10;;;;;;;13.76;65.12;101090.75;5115455;28;20196;-67
2023/01/01 09:01:30;;;;;;;6.60;2.23;;;;;;;13.70;64.30;101098.50;5115396;28;20181;-67
2023/01/01 09:03:56;;;;;;;3.33;2.50;;;;;;;13.76;64.25;101088.06;5115392;28;20196;-67
2023/01/01 09:06:23;;;;;;;6.07;2.40;;;;;;;13.76;64.00;101101.53;5115500;28;20679;-68
2023/01/01 09:08:50;;;;;;;10.93;3.53;;;;;;;13.77;64.10;101108.66;5114915;28;20271;-68
2023/01/01 09:11:22;;;;;;;11.57;3.30;;;;;;;13.82;64.23;101121.75;5115245;28;20283;-68
2023/01/01 09:13:49;;;;;;;5.20;3.10;;;;;;;13.85;63.74;101124.19;5115511;28;20205;-68
2023/01/01 09:16:15;;;;;;;6.10;3.57;;;;;;;13.86;62.87;101128.56;5115287;28;20228;-68
2023/01/01 09:18:41;;;;;;;5.40;2.80;;;;;;;13.82;63.92;101127.13;5115111;28;20185;-68
2023/01/01 09:21:08;;;;;;;5.47;2.80;;;;;;;13.88;64.17;101129.31;5114885;28;20203;-68
2023/01/01 09:23:35;;;;;;;8.30;2.80;;;;;;;13.86;64.07;101133.97;5114992;28;20267;-68
2023/01/01 09:26:03;;;;;;;7.47;3.00;;;;;;;13.85;64.32;101124.19;5115402;28;20201;-68
2023/01/01 09:28:30;;;;;;;7.70;2.67;;;;;;;13.85;64.14;101129.56;5115463;28;20185;-67
2023/01/01 09:30:56;;;;;;;2.50;2.43;;;;;;;13.89;63.76;101135.59;5115095;28;20520;-67
2023/01/01 09:33:23;;;;;;;7.70;3.53;;;;;;;13.88;64.19;101134.69;5115061;28;20647;-67
2023/01/01 09:35:49;;;;;;;3.43;2.57;;;;;;;13.90;64.03;101134.59;5115197;28;20221;-68
2023/01/01 09:38:16;;;;;;;10.13;2.87;;;;;;;13.91;63.45;101137.19;5115238;28;20185;-68
2023/01/01 09:41:17;;;;;;;3.70;3.40;;;;;;;13.95;62.78;101135.94;5114609;28;20200;-68
2023/01/01 09:43:49;;;;;;;5.60;3.33;;;;;;;13.85;64.23;101143.03;5114924;28;20264;-68
2023/01/01 09:46:16;;;;;;;5.97;3.10;;;;;;;13.89;64.07;101146.34;5114924;28;20297;-68
2023/01/01 09:48:57;;;;;;;4.07;3.47;;;;;;;13.89;63.98;101157.97;5114492;28;20190;-68
2023/01/01 09:51:29;;;;;;;5.70;2.73;;;;;;;13.88;64.34;101153.56;5115020;28;20534;-68
2023/01/01 09:54:05;;;;;;;8.17;3.63;;;;;;;13.91;63.93;101150.63;5114716;28;20177;-68
2023/01/01 09:56:34;;;;;;;5.50;2.80;;;;;;;13.95;63.65;101148.53;5114245;28;20223;-68
2023/01/01 09:59:01;;;;;;;7.30;2.80;;;;;;;13.96;63.64;101155.66;5114243;28;20203;-68
2023/01/01 10:01:55;;;;;;;2.07;2.00;;;;;;;13.94;63.52;101150.38;5114565;28;20575;-68
2023/01/01 10:05:00;;;;;;;3.00;2.80;;;;;;;13.99;63.23;101172.41;5114212;28;20186;-68
2023/01/01 10:07:29;;;;;;;9.97;2.23;;;;;;;13.97;63.66;101166.28;5096648;28;20226;-67
2023/01/01 10:10:31;;;;;;;2.37;2.37;;;;;;;14.01;63.18;101169.63;5114421;28;20189;-67
2023/01/01 10:13:19;;;;;;;2.83;2.63;;;;;;;14.04;63.36;101167.53;5114647;28;20191;-67
2023/01/01 10:16:06;;;;;;;4.67;2.53;;;;;;;14.05;63.48;101179.16;5113899;28;20177;-68
2023/01/01 10:18:37;;;;;;;3.47;2.40;;;;;;;14.00;63.85;101181.34;5113620;28;20188;-68
2023/01/01 10:21:42;;;;;;;15.37;2.63;;;;;;;13.98;63.83;101162.63;5113986;28;20189;-68
2023/01/01 10:24:26;;;;;;;3.00;2.73;;;;;;;13.93;63.68;101154.03;5011892;28;20200;-68
2023/01/01 10:26:54;;;;;;;8.33;4.13;;;;;;;13.97;63.87;101158.22;5108460;28;20227;-68
2023/01/01 10:29:50;;;;;;;9.77;2.93;;;;;;;13.99;64.10;101158.09;5113801;28;20656;-68
2023/01/01 10:32:27;;;;;;;4.40;2.43;;;;;;;14.08;63.94;101153.81;5112126;28;20197;-67
2023/01/01 10:34:55;;;;;;;4.77;2.53;;;;;;;14.05;63.65;101149.53;5114075;28;20173;-68
2023/01/01 10:37:22;;;;;;;11.90;2.63;;;;;;;14.11;63.39;101150.88;5113882;28;20223;-68
2023/01/01 10:39:49;;;;;;;3.50;2.83;;;;;;;14.12;63.08;101155.28;5114030;28;20176;-67
2023/01/01 10:42:15;;;;;;;15.37;3.53;;;;;;;14.15;63.70;101152.34;5114352;28;20624;-68
2023/01/01 10:44:42;;;;;;;7.40;2.90;;;;;;;14.14;63.75;101146.09;5113943;28;20177;-68
2023/01/01 10:47:31;;;;;;;2.30;2.30;;;;;;;14.09;63.65;101155.53;5114180;28;20275;-68
2023/01/01 10:50:06;;;;;;;4.23;2.60;;;;;;;14.10;63.27;101149.16;5113391;28;20207;-67
2023/01/01 10:52:39;;;;;;;6.07;2.37;;;;;;;14.10;63.79;101135.69;5113910;28;20177;-68
2023/01/01 10:55:20;;;;;;;3.03;2.77;;;;;;;14.14;63.36;101134.47;5113598;28;20659;-67
2023/01/01 10:57:46;;;;;;;4.20;2.47;;;;;;;14.12;62.87;101139.97;5113510;28;20212;-68
2023/01/01 11:00:25;;;;;;;3.67;3.10;;;;;;;14.15;63.61;101141.56;5113537;28;20185;-67
2023/01/01 11:03:13;;;;;;;8.03;2.23;;;;;;;14.21;63.57;101146.47;5113571;28;20259;-68
2023/01/01 11:05:39;;;;;;;4.30;2.40;;;;;;;14.24;63.15;101148.91;5114060;28;20185;-68
2023/01/01 11:08:17;;;;;;;3.87;2.67;;;;;;;14.27;63.27;101143.28;5113548;28;20180;-68
2023/01/01 11:10:50;;;;;;;11.87;3.33;;;;;;;14.29;63.32;101151.22;5113557;28;20178;-68
2023/01/01 11:13:19;;;;;;;8.10;2.70;;;;;;;14.35;63.33;101154.28;5095191;28;20185;-68
2023/01/01 11:15:46;;;;;;;6.63;2.30;;;;;;;14.35;62.84;101156.13;5113889;28;20258;-68
2023/01/01 11:18:18;;;;;;;6.80;3.50;;;;;;;14.38;62.27;101158.56;5113261;28;20208;-68
2023/01/01 11:20:54;;;;;;;5.97;2.57;;;;;;;14.38;63.28;101172.91;5095015;28;20197;-68
2023/01/01 11:23:29;;;;;;;6.77;2.83;;;;;;;14.39;62.41;101168.34;5113933;28;20222;-68
2023/01/01 11:25:57;;;;;;;3.60;2.93;;;;;;;14.41;62.58;101169.97;5113584;28;20205;-68
2023/01/01 11:28:25;;;;;;;14.03;3.10;;;;;;;14.45;62.39;101175.97;5113820;28;20173;-68
2023/01/01 11:31:11;;;;;;;11.13;2.80;;;;;;;14.50;61.58;101179.13;5096973;28;20552;-68
2023/01/01 11:33:51;;;;;;;5.20;2.70;;;;;;;14.45;61.74;101176.81;5117745;28;20200;-68
2023/01/01 11:36:23;;;;;;;3.13;3.00;;;;;;;14.52;62.22;101182.56;5117208;28;20725;-68
2023/01/01 11:39:06;;;;;;;8.10;2.30;;;;;;;14.50;62.76;101205.25;5117337;28;20177;-68
2023/01/01 11:41:59;;;;;;;5.13;2.60;;;;;;;14.61;62.37;101189.94;5117557;28;20174;-68
2023/01/01 11:44:39;;;;;;;17.73;2.77;;;;;;;14.61;61.14;101181.84;5113098;28;20210;-68
2023/01/01 11:47:18;;;;;;;6.43;3.17;;;;;;;14.57;62.38;101185.78;5116967;28;20225;-68
2023/01/01 11:49:51;;;;;;;4.03;2.83;;;;;;;14.64;62.54;101195.06;5117125;28;20177;-68